Time;durP1;ratioP1;P1;durP2;ratioP2;P2;SDS_P1;SDS_P2;PMS_P1;PMS_P2;Temp;Humidity;BMP_temperature;BMP_pressure;BME280_temperature;BME280_humidity;BME280_pressure;Samples;Min_cycle;Max_cycle;Signal;HPM_P1;HPM_P2
2023/03/07 00:01:51;;;;;;;9.00;5.57;;;4.20;99.90;;;;;;5082817;28;20150;-66
2023/03/07 00:04:16;;;;;;;11.15;5.60;;;4.20;99.90;;;;;;5080095;28;20032;-65
2023/03/07 00:06:42;;;;;;;7.85;4.18;;;4.20;99.90;;;;;;5091930;28;20111;-66
2023/03/07 00:09:08;;;;;;;4.93;3.30;;;4.20;99.90;;;;;;5089728;28;20033;-66
2023/03/07 00:11:34;;;;;;;7.82;3.92;;;4.20;99.90;;;;;;5092108;28;20450;-66
2023/03/07 00:13:59;;;;;;;6.32;4.00;;;4.20;99.90;;;;;;5079035;28;20533;-67
2023/03/07 00:16:25;;;;;;;5.47;3.10;;;4.20;99.90;;;;;;5072898;28;20032;-67
2023/03/07 00:18:51;;;;;;;4.35;2.38;;;4.10;99.90;;;;;;5054834;28;20124;-66
2023/03/07 00:21:19;;;;;;;3.90;2.60;;;4.10;99.90;;;;;;5064758;28;20119;-66
2023/03/07 00:23:45;;;;;;;3.97;2.53;;;4.20;99.90;;;;;;5072577;28;20067;-66
2023/03/07 00:26:17;;;;;;;5.45;3.05;;;4.10;99.90;;;;;;5088404;28;20074;-67
2023/03/07 00:28:45;;;;;;;6.43;3.03;;;4.20;99.90;;;;;;5090979;28;20465;-66
2023/03/07 00:31:11;;;;;;;6.15;3.33;;;4.10;99.90;;;;;;5065988;28;20044;-66
2023/03/07 00:33:38;;;;;;;5.35;3.33;;;4.10;99.90;;;;;;5091546;28;20043;-66
2023/03/07 00:36:15;;;;;;;5.90;3.78;;;4.10;99.90;;;;;;5091969;28;20028;-66
2023/03/07 00:38:42;;;;;;;6.38;3.38;;;4.10;99.90;;;;;;5077261;28;20039;-66
2023/03/07 00:41:11;;;;;;;5.53;3.25;;;4.10;99.90;;;;;;5084335;28;20103;-66
2023/03/07 00:43:37;;;;;;;4.88;3.03;;;4.20;99.90;;;;;;5081655;28;20044;-65
2023/03/07 00:46:03;;;;;;;6.72;2.90;;;4.20;99.90;;;;;;5084036;28;20043;-65
2023/03/07 00:48:31;;;;;;;4.53;1.70;;;4.20;99.90;;;;;;5058015;28;20055;-65
2023/03/07 00:50:57;;;;;;;2.63;1.60;;;4.20;99.90;;;;;;5071354;28;20063;-64
2023/03/07 00:53:23;;;;;;;3.75;1.40;;;4.10;99.90;;;;;;5088927;28;20100;-64
2023/03/07 00:56:00;;;;;;;4.35;1.50;;;4.20;99.90;;;;;;5072082;28;20036;-65
2023/03/07 00:58:28;;;;;;;2.83;1.20;;;4.10;99.90;;;;;;5084632;28;20038;-64
2023/03/07 01:00:55;;;;;;;1.95;1.23;;;4.10;99.90;;;;;;5081921;28;20044;-64
2023/03/07 01:03:22;;;;;;;2.50;1.30;;;4.10;99.90;;;;;;5085249;28;20042;-64
2023/03/07 01:05:47;;;;;;;3.15;1.40;;;4.10;99.90;;;;;;5070897;28;20075;-64
2023/03/07 01:08:13;;;;;;;3.13;1.40;;;4.10;99.90;;;;;;5073271;28;20086;-65
2023/03/07 01:10:39;;;;;;;2.30;1.70;;;4.10;99.90;;;;;;5063822;28;20055;-65
2023/03/07 01:13:05;;;;;;;4.85;1.63;;;4.10;99.90;;;;;;5082655;28;20032;-65
2023/03/07 01:15:31;;;;;;;2.17;1.30;;;4.10;99.90;;;;;;5065037;28;20072;-64
2023/03/07 01:17:57;;;;;;;2.03;1.38;;;4.10;99.90;;;;;;5084127;28;20044;-64
2023/03/07 01:20:23;;;;;;;5.63;1.58;;;4.10;99.90;;;;;;5080228;28;20028;-65
2023/03/07 01:22:48;;;;;;;1.65;1.27;;;4.10;99.90;;;;;;5085335;28;20584;-64
2023/03/07 01:25:14;;;;;;;1.80;1.02;;;4.10;99.90;;;;;;5091350;28;20046;-64
2023/03/07 01:27:40;;;;;;;2.85;1.40;;;4.10;99.90;;;;;;5090730;28;20035;-64
2023/03/07 01:30:07;;;;;;;1.50;1.20;;;4.10;99.90;;;;;;5078242;28;20067;-64
2023/03/07 01:32:32;;;;;;;4.10;1.42;;;4.10;99.90;;;;;;5081275;28;20165;-64
2023/03/07 01:34:58;;;;;;;3.42;1.50;;;4.10;99.90;;;;;;5083683;28;20482;-64
2023/03/07 01:37:24;;;;;;;3.78;1.67;;;4.10;99.90;;;;;;5083697;28;20036;-64
2023/03/07 01:39:51;;;;;;;2.95;1.60;;;4.10;99.90;;;;;;5086201;28;20060;-64
2023/03/07 01:42:17;;;;;;;3.80;1.75;;;4.10;99.90;;;;;;5085269;28;20119;-65
2023/03/07 01:45:06;;;;;;;3.78;1.60;;;4.10;99.90;;;;;;5064152;28;20115;-65
2023/03/07 01:47:33;;;;;;;4.30;1.35;;;4.10;99.90;;;;;;5082438;28;20609;-64
2023/03/07 01:50:02;;;;;;;4.00;1.75;;;4.10;99.90;;;;;;5088886;28;20036;-64
2023/03/07 01:52:45;;;;;;;2.58;1.30;;;4.10;99.90;;;;;;5089008;28;20044;-64
2023/03/07 01:55:17;;;;;;;2.53;1.45;;;4.00;99.90;;;;;;5082046;28;20362;-64
2023/03/07 01:57:44;;;;;;;3.42;1.45;;;4.00;99.90;;;;;;5083792;28;20040;-64
2023/03/07 02:00:17;;;;;;;2.92;1.20;;;4.00;99.90;;;;;;5064908;28;20028;-64
2023/03/07 02:02:46;;;;;;;2.30;1.20;;;4.00;99.90;;;;;;5091949;28;20115;-64
2023/03/07 02:05:27;;;;;;;3.80;1.30;;;4.00;99.90;;;;;;5071234;28;20081;-64
2023/03/07 02:07:56;;;;;;;3.28;1.13;;;4.00;99.90;;;;;;5087271;28;20123;-64
2023/03/07 02:10:22;;;;;;;4.03;1.00;;;3.90;99.90;;;;;;5087165;28;20036;-64
2023/03/07 02:12:50;;;;;;;2.58;1.05;;;3.90;99.90;;;;;;5083014;28;20123;-63
2023/03/07 02:15:16;;;;;;;2.25;1.02;;;3.90;99.90;;;;;;5075993;28;20055;-63
2023/03/07 02:17:42;;;;;;;4.80;1.48;;;3.90;99.90;;;;;;5093447;28;20036;-64
2023/03/07 02:20:23;;;;;;;3.17;1.10;;;3.80;99.90;;;;;;5093410;28;20093;-63
2023/03/07 02:22:49;;;;;;;3.70;1.20;;;3.80;99.90;;;;;;5068116;28;20055;-63
2023/03/07 02:25:39;;;;;;;3.25;1.40;;;3.80;99.90;;;;;;5087748;28;20055;-63
2023/03/07 02:28:08;;;;;;;3.58;1.35;;;3.80;99.90;;;;;;5085889;28;20115;-63
2023/03/07 02:30:36;;;;;;;4.22;1.90;;;3.70;99.90;;;;;;5094061;28;20508;-64
2023/03/07 02:33:01;;;;;;;5.03;1.80;;;3.70;99.90;;;;;;5085577;28;20055;-63
2023/03/07 02:35:27;;;;;;;4.32;1.50;;;3.70;99.90;;;;;;5094061;28;20040;-63
2023/03/07 02:37:57;;;;;;;2.45;1.48;;;3.70;99.90;;;;;;5093111;28;20119;-63
2023/03/07 02:40:25;;;;;;;4.57;1.83;;;3.70;99.90;;;;;;5093895;28;20039;-64
2023/03/07 02:42:54;;;;;;;5.18;1.25;;;3.60;99.90;;;;;;5091161;28;20067;-64
2023/03/07 02:45:20;;;;;;;4.18;1.50;;;3.60;99.90;;;;;;5087242;28;20447;-63
2023/03/07 02:47:46;;;;;;;3.20;1.80;;;3.60;99.90;;;;;;5062598;28;20036;-64
2023/03/07 02:50:14;;;;;;;5.35;1.50;;;3.60;99.90;;;;;;5090714;28;20489;-63
2023/03/07 02:52:39;;;;;;;4.53;1.67;;;3.70;99.90;;;;;;5093018;28;20071;-64
2023/03/07 02:55:06;;;;;;;2.22;1.42;;;3.60;99.90;;;;;;5091471;28;20074;-63
2023/03/07 02:57:32;;;;;;;3.88;1.48;;;3.60;99.90;;;;;;5093481;28;20032;-63
2023/03/07 02:59:58;;;;;;;3.70;1.40;;;3.60;99.90;;;;;;5092132;28;20169;-64
2023/03/07 03:02:25;;;;;;;4.75;1.75;;;3.60;99.90;;;;;;5063750;28;20169;-63
2023/03/07 03:04:50;;;;;;;5.00;2.17;;;3.60;99.90;;;;;;5092577;28;20039;-63
2023/03/07 03:07:16;;;;;;;5.40;1.92;;;3.50;99.90;;;;;;5085531;28;20036;-63
2023/03/07 03:09:42;;;;;;;4.55;1.67;;;3.60;99.90;;;;;;5092845;28;20493;-63
2023/03/07 03:12:08;;;;;;;7.10;1.92;;;3.50;99.90;;;;;;5087883;28;20036;-64
2023/03/07 03:14:33;;;;;;;7.55;1.42;;;3.50;99.90;;;;;;5086972;28;20040;-64
2023/03/07 03:16:59;;;;;;;4.97;1.30;;;3.50;99.90;;;;;;5085337;28;20119;-63
2023/03/07 03:19:24;;;;;;;5.45;1.20;;;3.50;99.90;;;;;;5093414;28;20060;-63
2023/03/07 03:21:50;;;;;;;5.60;1.35;;;3.50;99.90;;;;;;5070871;28;20482;-64
2023/03/07 03:24:16;;;;;;;5.13;1.23;;;3.50;99.90;;;;;;5092978;28;20032;-64
2023/03/07 03:26:42;;;;;;;6.22;1.40;;;3.50;99.90;;;;;;5091852;28;20481;-64
2023/03/07 03:29:08;;;;;;;7.25;1.42;;;3.50;99.90;;;;;;5085228;28;20028;-64
2023/03/07 03:31:34;;;;;;;3.80;1.30;;;3.40;99.90;;;;;;5085620;28;20423;-64
2023/03/07 03:34:00;;;;;;;3.92;1.30;;;3.50;99.90;;;;;;5089678;28;20123;-64
2023/03/07 03:36:26;;;;;;;4.20;1.20;;;3.40;99.90;;;;;;5062716;28;20044;-64
2023/03/07 03:38:53;;;;;;;7.53;1.30;;;3.40;99.90;;;;;;5091476;28;20092;-63
2023/03/07 03:41:19;;;;;;;6.93;1.38;;;3.40;99.90;;;;;;5092773;28;20036;-63
2023/03/07 03:43:44;;;;;;;6.93;1.50;;;3.40;99.90;;;;;;5091023;28;20084;-63
2023/03/07 03:46:10;;;;;;;6.60;1.42;;;3.30;99.90;;;;;;5084371;28;20119;-64
2023/03/07 03:48:36;;;;;;;8.90;1.60;;;3.30;99.90;;;;;;5091828;28;20098;-63
2023/03/07 03:51:07;;;;;;;4.63;1.20;;;3.30;99.90;;;;;;5092000;28;20035;-64
2023/03/07 03:53:34;;;;;;;;;;;3.30;99.90;;;;;;5092107;28;20389;-64
2023/03/07 03:56:11;;;;;;;7.95;1.65;;;3.30;99.90;;;;;;5083296;28;19915;-64
2023/03/07 03:58:38;;;;;;;10.45;1.50;;;3.30;99.90;;;;;;5092339;28;20044;-64
2023/03/07 04:01:06;;;;;;;7.32;1.42;;;3.30;99.90;;;;;;5081697;28;20032;-64
2023/03/07 04:03:33;;;;;;;8.95;1.67;;;3.40;99.90;;;;;;5087793;28;20043;-63
2023/03/07 04:06:04;;;;;;;3.88;1.30;;;3.40;99.90;;;;;;5089696;28;20094;-64
2023/03/07 04:08:30;;;;;;;6.25;1.48;;;3.40;99.90;;;;;;5086913;28;20036;-64
2023/03/07 04:10:56;;;;;;;8.55;1.52;;;3.40;99.90;;;;;;5092780;28;20050;-63
2023/03/07 04:13:21;;;;;;;7.88;1.77;;;3.50;99.90;;;;;;5073286;28;20036;-64
2023/03/07 04:15:47;;;;;;;5.75;1.98;;;3.50;99.90;;;;;;5090398;28;20404;-64
2023/03/07 04:18:12;;;;;;;5.25;1.45;;;3.50;99.90;;;;;;5085430;28;20043;-64
2023/03/07 04:20:44;;;;;;;5.57;1.55;;;3.50;99.90;;;;;;5089341;28;20027;-64
2023/03/07 04:23:10;;;;;;;7.35;1.73;;;3.50;99.90;;;;;;5090472;28;20074;-63
2023/03/07 04:25:36;;;;;;;6.97;1.55;;;3.50;99.90;;;;;;5086775;28;20043;-64
2023/03/07 04:28:01;;;;;;;8.70;1.92;;;3.50;99.90;;;;;;5084469;28;20043;-64
2023/03/07 04:30:27;;;;;;;10.75;1.77;;;3.50;99.90;;;;;;5090638;28;20034;-64
2023/03/07 04:32:53;;;;;;;7.70;1.42;;;3.60;99.90;;;;;;5071914;28;20051;-64
2023/03/07 04:35:18;;;;;;;6.32;1.48;;;3.60;99.90;;;;;;5089264;28;20043;-63
2023/03/07 04:37:44;;;;;;;8.90;2.20;;;3.50;99.90;;;;;;5081736;28;20028;-64
2023/03/07 04:40:10;;;;;;;9.45;1.85;;;3.50;99.90;;;;;;5091894;28;20036;-64
2023/03/07 04:42:36;;;;;;;7.38;1.30;;;3.50;99.90;;;;;;5090228;28;20122;-64
2023/03/07 04:45:02;;;;;;;12.30;2.03;;;3.50;99.90;;;;;;5092099;22;20119;-62
2023/03/07 04:47:28;;;;;;;6.50;1.40;;;3.50;99.90;;;;;;5070265;28;20132;-62
2023/03/07 04:49:53;;;;;;;8.20;1.73;;;3.60;99.90;;;;;;5075936;28;20500;-62
2023/03/07 04:52:19;;;;;;;9.65;1.65;;;3.50;99.90;;;;;;5068120;28;20040;-62
2023/03/07 04:54:45;;;;;;;9.23;1.92;;;3.50;99.90;;;;;;5070108;28;20063;-62
2023/03/07 04:57:10;;;;;;;10.05;1.50;;;3.50;99.90;;;;;;5072122;28;20158;-62
2023/03/07 04:59:38;;;;;;;9.30;1.80;;;3.50;99.90;;;;;;5071368;28;20395;-62
2023/03/07 05:02:06;;;;;;;8.32;1.33;;;3.40;99.90;;;;;;5059768;28;20076;-62
2023/03/07 05:04:32;;;;;;;8.30;1.58;;;3.40;99.90;;;;;;5069480;28;20032;-62
2023/03/07 05:06:58;;;;;;;5.05;1.70;;;3.40;99.90;;;;;;5069667;28;20162;-62
2023/03/07 05:09:24;;;;;;;7.65;1.40;;;3.40;99.90;;;;;;5069530;28;20115;-62
2023/03/07 05:11:49;;;;;;;9.10;1.55;;;3.40;99.90;;;;;;5051388;28;20141;-62
2023/03/07 05:14:15;;;;;;;7.20;1.60;;;3.40;99.90;;;;;;5070212;28;20040;-62
2023/03/07 05:16:41;;;;;;;6.70;1.40;;;3.40;99.90;;;;;;5071904;28;20044;-62
2023/03/07 05:19:07;;;;;;;6.68;1.35;;;3.40;99.90;;;;;;5070488;28;20494;-62
2023/03/07 05:21:33;;;;;;;13.27;1.70;;;3.40;99.90;;;;;;5063795;28;20052;-62
2023/03/07 05:23:59;;;;;;;7.68;1.70;;;3.40;99.90;;;;;;5069900;28;20040;-61
2023/03/07 05:26:25;;;;;;;3.20;1.15;;;3.40;99.90;;;;;;5070592;28;20048;-62
2023/03/07 05:28:50;;;;;;;6.43;1.20;;;3.50;99.90;;;;;;5061475;28;20124;-62
2023/03/07 05:31:16;;;;;;;11.93;1.50;;;3.40;99.90;;;;;;5071160;28;20124;-62
2023/03/07 05:33:41;;;;;;;4.15;1.25;;;3.50;99.90;;;;;;5066732;28;20041;-62
2023/03/07 05:36:08;;;;;;;6.38;1.35;;;3.40;99.90;;;;;;5065097;28;20028;-61
2023/03/07 05:38:34;;;;;;;4.88;1.25;;;3.40;99.90;;;;;;5063571;28;20033;-62
2023/03/07 05:40:59;;;;;;;8.63;1.42;;;3.50;99.90;;;;;;5070547;28;20466;-62
2023/03/07 05:43:25;;;;;;;3.95;1.35;;;3.50;99.90;;;;;;5070232;28;20044;-62
2023/03/07 05:45:51;;;;;;;8.25;1.38;;;3.40;99.90;;;;;;5069613;28;20040;-62
2023/03/07 05:48:16;;;;;;;12.07;1.58;;;3.40;99.90;;;;;;5060810;28;20038;-62
2023/03/07 05:50:42;;;;;;;12.18;1.65;;;3.40;99.90;;;;;;5071346;28;20108;-62
2023/03/07 05:53:08;;;;;;;6.70;1.40;;;3.50;99.90;;;;;;5070910;28;20044;-62
2023/03/07 05:55:34;;;;;;;9.10;1.20;;;3.50;99.90;;;;;;5070504;28;20037;-62
2023/03/07 05:57:59;;;;;;;4.70;1.30;;;3.40;99.90;;;;;;5065562;28;20028;-62
2023/03/07 06:00:25;;;;;;;8.57;1.60;;;3.40;99.90;;;;;;5052503;28;20490;-62
2023/03/07 06:02:51;;;;;;;4.90;1.23;;;3.40;99.90;;;;;;5067390;28;20486;-62
2023/03/07 06:05:17;;;;;;;6.47;1.13;;;3.40;99.90;;;;;;5063937;28;20047;-62
2023/03/07 06:07:43;;;;;;;6.63;0.77;;;3.50;99.90;;;;;;5064809;28;20033;-61
2023/03/07 06:10:10;;;;;;;9.48;1.25;;;3.50;99.90;;;;;;5075798;28;20055;-62
2023/03/07 06:12:36;;;;;;;5.68;1.33;;;3.50;99.90;;;;;;5070812;28;20056;-62
2023/03/07 06:15:03;;;;;;;7.20;1.40;;;3.50;99.90;;;;;;5052121;28;20040;-61
2023/03/07 06:17:29;;;;;;;6.50;1.40;;;3.50;99.90;;;;;;5070166;28;20033;-61
2023/03/07 06:19:55;;;;;;;3.00;1.10;;;3.50;99.90;;;;;;5071035;28;20113;-62
2023/03/07 06:22:20;;;;;;;8.30;1.33;;;3.50;99.90;;;;;;5069575;28;20033;-62
2023/03/07 06:24:46;;;;;;;7.93;1.52;;;3.50;99.90;;;;;;5065523;28;20036;-62
2023/03/07 06:27:11;;;;;;;13.63;2.03;;;3.50;99.90;;;;;;5066688;28;20025;-62
2023/03/07 06:29:37;;;;;;;8.48;1.25;;;3.50;99.90;;;;;;5069971;28;20120;-62
2023/03/07 06:32:03;;;;;;;5.85;1.20;;;3.50;99.90;;;;;;5066062;28;20123;-62
2023/03/07 06:34:29;;;;;;;6.80;1.15;;;3.50;99.90;;;;;;5063721;28;20110;-61
2023/03/07 06:36:54;;;;;;;10.23;1.40;;;3.50;99.90;;;;;;5067408;28;20064;-62
2023/03/07 06:39:20;;;;;;;5.93;1.17;;;3.60;99.90;;;;;;5061146;28;20542;-62
2023/03/07 06:41:47;;;;;;;4.30;1.30;;;3.60;99.90;;;;;;5069251;28;20047;-62
2023/03/07 06:44:15;;;;;;;8.65;1.23;;;3.50;99.90;;;;;;5067854;28;20043;-62
2023/03/07 06:46:41;;;;;;;6.10;1.27;;;3.50;99.90;;;;;;5047478;28;20044;-62
2023/03/07 06:49:07;;;;;;;5.68;1.05;;;3.50;99.90;;;;;;5072632;28;20059;-62
2023/03/07 06:51:32;;;;;;;5.10;1.10;;;3.50;99.90;;;;;;5074285;28;20036;-62
2023/03/07 06:53:58;;;;;;;9.00;1.60;;;3.40;99.90;;;;;;5074260;28;20086;-61
2023/03/07 06:56:24;;;;;;;4.13;1.00;;;3.50;99.90;;;;;;5071238;28;20113;-61
2023/03/07 06:58:50;;;;;;;3.83;1.40;;;3.50;99.90;;;;;;5077740;28;20064;-62
2023/03/07 07:01:20;;;;;;;6.40;1.08;;;3.40;99.90;;;;;;5074462;28;20125;-61
2023/03/07 07:03:45;;;;;;;4.88;1.02;;;3.40;99.90;;;;;;5054861;28;20509;-62
2023/03/07 07:06:11;;;;;;;7.82;1.50;;;3.40;99.90;;;;;;5072595;28;20040;-61
2023/03/07 07:08:37;;;;;;;4.72;0.98;;;3.40;99.90;;;;;;5071363;28;20044;-62
2023/03/07 07:11:02;;;;;;;5.38;1.48;;;3.40;99.90;;;;;;5052953;28;20044;-62
2023/03/07 07:13:28;;;;;;;4.70;1.20;;;3.40;99.90;;;;;;5066517;28;20041;-62
2023/03/07 07:15:53;;;;;;;5.78;1.38;;;3.40;99.90;;;;;;5058714;28;20037;-62
2023/03/07 07:18:19;;;;;;;4.63;1.20;;;3.50;99.90;;;;;;5079325;28;20059;-62
2023/03/07 07:20:51;;;;;;;6.13;1.20;;;3.50;99.90;;;;;;5073496;28;20032;-62
2023/03/07 07:23:19;;;;;;;4.97;1.00;;;3.50;99.90;;;;;;5072851;28;20040;-62
2023/03/07 07:25:45;;;;;;;9.15;1.63;;;3.40;99.90;;;;;;5070844;28;20532;-62
2023/03/07 07:28:10;;;;;;;4.47;1.17;;;3.40;99.90;;;;;;5086874;28;20036;-62
2023/03/07 07:30:36;;;;;;;5.43;1.05;;;3.40;99.90;;;;;;5084827;28;20028;-62
2023/03/07 07:33:01;;;;;;;6.15;1.33;;;3.40;99.90;;;;;;5071536;28;20596;-62
2023/03/07 07:35:27;;;;;;;5.30;1.40;;;3.40;99.90;;;;;;5071481;28;20032;-62
2023/03/07 07:37:53;;;;;;;3.55;0.90;;;3.50;99.90;;;;;;5073508;28;20039;-61
2023/03/07 07:40:19;;;;;;;9.43;1.30;;;3.40;99.90;;;;;;5073744;28;20102;-62
2023/03/07 07:42:53;;;;;;;5.93;1.17;;;3.40;99.90;;;;;;5074537;28;20091;-62
2023/03/07 07:45:22;;;;;;;4.63;1.10;;;3.40;99.90;;;;;;5068820;28;20043;-62
2023/03/07 07:47:51;;;;;;;6.53;1.25;;;3.40;99.90;;;;;;5081537;28;20040;-62
2023/03/07 07:50:20;;;;;;;5.40;1.25;;;3.40;99.90;;;;;;5072470;28;20413;-62
2023/03/07 07:52:47;;;;;;;6.90;1.23;;;3.40;99.90;;;;;;5070242;28;20033;-62
2023/03/07 07:55:13;;;;;;;7.25;1.30;;;3.40;99.90;;;;;;5067489;28;20111;-62
2023/03/07 07:57:42;;;;;;;3.08;0.95;;;3.40;99.90;;;;;;5069799;28;20043;-62
2023/03/07 08:00:10;;;;;;;4.25;1.13;;;3.40;99.90;;;;;;5069597;28;20029;-61
2023/03/07 08:02:36;;;;;;;6.53;1.25;;;3.40;99.90;;;;;;5066224;28;20047;-62
2023/03/07 08:05:05;;;;;;;6.22;0.90;;;3.40;99.90;;;;;;5062961;28;20032;-61
2023/03/07 08:07:30;;;;;;;4.90;1.08;;;3.40;99.90;;;;;;5054827;28;20074;-62
2023/03/07 08:09:56;;;;;;;8.77;1.13;;;3.40;99.90;;;;;;5051036;28;20760;-62
2023/03/07 08:12:22;;;;;;;8.43;1.13;;;3.30;99.90;;;;;;5079625;28;20036;-62
2023/03/07 08:14:47;;;;;;;6.00;1.42;;;3.30;99.90;;;;;;5072500;28;20481;-62
2023/03/07 08:17:13;;;;;;;6.30;2.25;;;3.30;99.90;;;;;;5073183;28;20124;-62
2023/03/07 08:19:38;;;;;;;7.50;1.60;;;3.30;99.90;;;;;;5069452;28;20040;-62
2023/03/07 08:22:04;;;;;;;4.53;1.20;;;3.30;99.90;;;;;;5075921;28;20029;-62
2023/03/07 08:24:33;;;;;;;8.00;1.42;;;3.20;99.90;;;;;;5062279;28;20036;-62
2023/03/07 08:26:59;;;;;;;6.55;1.40;;;3.20;99.90;;;;;;5070502;28;20553;-61
2023/03/07 08:29:26;;;;;;;4.60;1.30;;;3.20;99.90;;;;;;5070693;28;20075;-62
2023/03/07 08:31:53;;;;;;;7.50;1.73;;;3.20;99.90;;;;;;5071297;28;20033;-62
2023/03/07 08:34:19;;;;;;;4.93;1.20;;;3.20;99.90;;;;;;5048521;28;20041;-62
2023/03/07 08:36:44;;;;;;;4.63;1.20;;;3.10;99.90;;;;;;5069343;28;20534;-62
2023/03/07 08:39:10;;;;;;;5.22;1.05;;;3.20;99.90;;;;;;5065490;28;20029;-62
2023/03/07 08:41:37;;;;;;;5.50;1.33;;;3.10;99.90;;;;;;5067649;28;20059;-61
2023/03/07 08:44:02;;;;;;;3.75;1.35;;;3.20;99.90;;;;;;5061571;28;20089;-62
2023/03/07 08:46:28;;;;;;;7.05;1.38;;;3.20;99.90;;;;;;5068815;28;20033;-62
2023/03/07 08:48:53;;;;;;;5.60;1.27;;;3.20;99.90;;;;;;5069968;28;20032;-62
2023/03/07 08:51:19;;;;;;;6.75;1.33;;;3.30;99.90;;;;;;5067136;28;20037;-62
2023/03/07 08:53:45;;;;;;;8.10;1.83;;;3.30;99.90;;;;;;5065632;28;20060;-62
2023/03/07 08:56:13;;;;;;;6.90;1.80;;;3.30;99.90;;;;;;5067190;28;20036;-62
2023/03/07 08:58:40;;;;;;;7.93;1.98;;;3.30;99.90;;;;;;5052044;28;20045;-62
2023/03/07 09:01:07;;;;;;;5.93;1.40;;;3.30;99.90;;;;;;5053083;28;20041;-62
2023/03/07 09:03:33;;;;;;;5.63;1.80;;;3.40;99.90;;;;;;5049796;28;20053;-62
2023/03/07 09:06:00;;;;;;;4.72;1.30;;;3.40;99.90;;;;;;5069662;28;20035;-62
2023/03/07 09:08:26;;;;;;;7.82;1.73;;;3.50;99.90;;;;;;5051787;28;20405;-62
2023/03/07 09:10:52;;;;;;;8.15;1.58;;;3.50;99.90;;;;;;5072957;28;20051;-62
2023/03/07 09:13:18;;;;;;;6.97;1.58;;;3.60;99.90;;;;;;5052235;28;20115;-62
2023/03/07 09:15:44;;;;;;;5.50;1.40;;;3.60;99.90;;;;;;5078849;28;20119;-62
2023/03/07 09:18:10;;;;;;;7.20;1.50;;;3.60;99.90;;;;;;5068544;28;20039;-62
2023/03/07 09:20:39;;;;;;;7.65;1.80;;;3.70;99.90;;;;;;5068039;28;20028;-62
2023/03/07 09:23:05;;;;;;;10.38;1.65;;;3.70;99.90;;;;;;5057595;28;20083;-62
2023/03/07 09:25:31;;;;;;;8.50;1.55;;;3.80;99.90;;;;;;5052104;28;20082;-62
2023/03/07 09:27:57;;;;;;;7.07;1.40;;;3.80;99.90;;;;;;5079951;28;20072;-62
2023/03/07 09:30:24;;;;;;;7.55;1.73;;;3.90;99.90;;;;;;5065016;28;20069;-62
2023/03/07 09:32:50;;;;;;;5.63;1.30;;;3.90;99.90;;;;;;5066451;28;20480;-62
2023/03/07 09:35:16;;;;;;;8.00;1.35;;;4.00;99.90;;;;;;5065334;28;20040;-62
2023/03/07 09:37:42;;;;;;;5.80;1.20;;;4.00;99.90;;;;;;5069717;28;20032;-62
2023/03/07 09:40:15;;;;;;;3.15;1.00;;;4.00;99.90;;;;;;5059510;28;20037;-62
2023/03/07 09:42:59;;;;;;;4.55;1.05;;;4.10;99.90;;;;;;5063010;28;20032;-62
2023/03/07 09:45:43;;;;;;;9.77;1.30;;;4.00;99.90;;;;;;5059284;28;20074;-62
2023/03/07 09:48:39;;;;;;;2.08;1.17;;;4.00;99.90;;;;;;5049061;28;20045;-62
2023/03/07 09:51:12;;;;;;;5.75;1.30;;;4.00;99.90;;;;;;5051622;28;20269;-62
2023/03/07 09:53:45;;;;;;;4.88;1.20;;;4.10;99.90;;;;;;5052512;28;20032;-62
2023/03/07 09:56:35;;;;;;;8.70;1.85;;;4.20;99.90;;;;;;5078453;28;20043;-62
2023/03/07 09:59:15;;;;;;;4.18;1.00;;;4.20;99.90;;;;;;5071485;28;20119;-62
2023/03/07 10:01:43;;;;;;;4.63;0.90;;;4.20;99.90;;;;;;5070292;28;20485;-62
2023/03/07 10:04:26;;;;;;;7.00;1.13;;;4.30;99.90;;;;;;5061358;28;20072;-62
2023/03/07 10:06:56;;;;;;;2.95;1.20;;;4.30;99.90;;;;;;5076210;28;20127;-62
2023/03/07 10:09:23;;;;;;;4.15;1.20;;;4.40;99.90;;;;;;5080651;28;20033;-62
2023/03/07 10:12:04;;;;;;;5.82;1.35;;;4.40;99.90;;;;;;5064065;28;20033;-62
2023/03/07 10:14:35;;;;;;;6.00;1.00;;;4.40;99.90;;;;;;5070228;28;20458;-62
2023/03/07 10:17:22;;;;;;;5.07;1.20;;;4.50;99.90;;;;;;5050277;28;20054;-62
2023/03/07 10:19:53;;;;;;;4.80;1.30;;;4.50;99.90;;;;;;5060646;28;20110;-62
2023/03/07 10:22:21;;;;;;;6.90;1.10;;;4.50;99.90;;;;;;5071248;28;20052;-62
2023/03/07 10:25:15;;;;;;;5.78;0.90;;;4.60;99.90;;;;;;5072741;28;20394;-62
2023/03/07 10:27:44;;;;;;;5.15;1.10;;;4.60;99.90;;;;;;5071380;28;20406;-62
2023/03/07 10:30:15;;;;;;;4.47;1.00;;;4.60;99.90;;;;;;5073356;28;20033;-62
2023/03/07 10:32:46;;;;;;;3.13;0.90;;;4.50;99.90;;;;;;5074264;28;20120;-62
2023/03/07 10:35:14;;;;;;;3.85;0.82;;;4.30;99.90;;;;;;5072413;28;20562;-62
2023/03/07 10:37:50;;;;;;;1.13;0.55;;;4.10;99.90;;;;;;5069684;28;20455;-62
2023/03/07 10:40:53;;;;;;;1.27;0.75;;;3.80;99.90;;;;;;5074819;28;20040;-61
2023/03/07 10:43:31;;;;;;;1.10;0.52;;;3.70;99.90;;;;;;5061475;28;20044;-62
2023/03/07 10:46:25;;;;;;;2.22;0.80;;;3.70;99.90;;;;;;5090067;22;20571;-63
2023/03/07 10:48:55;;;;;;;2.50;0.90;;;3.80;99.90;;;;;;5065405;28;20044;-63
2023/03/07 10:51:35;;;;;;;1.83;0.70;;;3.80;99.90;;;;;;5072912;28;20651;-63
2023/03/07 10:54:04;;;;;;;4.88;0.82;;;3.90;99.90;;;;;;5080931;28;20036;-63
2023/03/07 10:56:30;;;;;;;3.22;0.82;;;4.00;99.90;;;;;;5072468;28;20040;-63
2023/03/07 10:58:58;;;;;;;2.38;0.88;;;4.10;99.90;;;;;;5071517;28;20041;-63
2023/03/07 11:01:26;;;;;;;5.35;1.08;;;4.10;99.90;;;;;;5069403;28;20037;-64
2023/03/07 11:03:59;;;;;;;2.67;1.00;;;4.20;99.90;;;;;;5069704;28;20545;-64
2023/03/07 11:06:50;;;;;;;3.80;1.10;;;4.30;99.90;;;;;;5049790;28;20452;-63
2023/03/07 11:09:24;;;;;;;3.05;0.98;;;4.40;99.90;;;;;;5068932;28;20043;-64
2023/03/07 11:11:58;;;;;;;3.88;1.08;;;4.50;99.90;;;;;;5067239;28;20091;-64
2023/03/07 11:14:26;;;;;;;2.03;1.00;;;4.60;99.90;;;;;;5081966;28;20064;-64
2023/03/07 11:16:54;;;;;;;5.35;1.00;;;4.70;99.90;;;;;;5068259;28;20040;-63
2023/03/07 11:19:37;;;;;;;6.60;0.90;;;4.80;99.90;;;;;;5058361;28;20474;-63
2023/03/07 11:22:28;;;;;;;6.30;1.10;;;4.80;99.90;;;;;;5075507;28;20116;-64
2023/03/07 11:25:02;;;;;;;3.88;1.20;;;5.00;99.90;;;;;;5046359;28;20131;-63
2023/03/07 11:27:38;;;;;;;11.65;1.73;;;5.00;99.90;;;;;;5069714;28;20131;-63
2023/03/07 11:30:17;;;;;;;5.95;1.30;;;5.00;99.90;;;;;;5072806;28;20398;-63
2023/03/07 11:33:23;;;;;;;5.30;1.13;;;5.10;99.90;;;;;;5072267;28;20055;-63
2023/03/07 11:36:09;;;;;;;2.85;1.15;;;5.20;99.90;;;;;;5054897;28;20052;-63
2023/03/07 11:38:39;;;;;;;1.88;0.80;;;5.30;99.90;;;;;;5073420;28;20036;-63
2023/03/07 11:41:18;;;;;;;6.38;1.10;;;5.40;99.90;;;;;;5070293;28;20032;-63
2023/03/07 11:44:23;;;;;;;6.45;1.27;;;5.50;99.90;;;;;;5069342;28;20561;-63
2023/03/07 11:47:07;;;;;;;7.18;1.20;;;5.50;99.90;;;;;;5023386;28;20185;-63
2023/03/07 11:49:50;;;;;;;2.90;1.20;;;5.50;99.90;;;;;;5064807;28;20043;-63
2023/03/07 11:52:31;;;;;;;6.80;1.38;;;5.60;99.90;;;;;;5066689;28;20036;-64
2023/03/07 11:55:03;;;;;;;;;;;5.70;99.90;;;;;;5082999;28;20071;-63
2023/03/07 11:57:53;;;;;;;13.43;1.75;;;5.80;99.90;;;;;;5065454;28;20404;-64
2023/03/07 12:00:31;;;;;;;8.05;1.33;;;5.90;99.90;;;;;;5069184;28;20044;-63
2023/03/07 12:02:59;;;;;;;3.17;1.00;;;5.90;99.90;;;;;;5067652;28;20036;-63
2023/03/07 12:05:32;;;;;;;6.60;1.25;;;5.90;99.90;;;;;;5053983;28;20127;-64
2023/03/07 12:08:15;;;;;;;2.83;0.90;;;5.50;99.90;;;;;;5072721;28;20044;-63
2023/03/07 12:10:53;;;;;;;2.78;1.00;;;5.00;99.90;;;;;;5073117;28;20040;-64
2023/03/07 12:13:40;;;;;;;2.38;0.88;;;4.40;99.90;;;;;;5072517;28;20489;-63
2023/03/07 12:16:18;;;;;;;1.77;0.93;;;3.90;99.90;;;;;;5052328;28;20163;-62
2023/03/07 12:18:56;;;;;;;6.93;1.67;;;3.60;99.90;;;;;;5072839;28;20052;-63
2023/03/07 12:21:51;;;;;;;2.83;1.05;;;3.30;99.90;;;;;;5072124;28;20071;-66
2023/03/07 12:24:29;;;;;;;3.90;1.20;;;3.10;99.90;;;;;;5064492;28;20037;-66
2023/03/07 12:27:07;;;;;;;4.20;1.10;;;3.10;99.90;;;;;;5063728;28;20101;-66
2023/03/07 12:29:45;;;;;;;6.28;1.30;;;3.00;99.90;;;;;;5072083;28;20043;-66
2023/03/07 12:32:23;;;;;;;6.72;1.27;;;3.00;99.90;;;;;;5065532;28;20976;-66
2023/03/07 12:35:13;;;;;;;5.85;1.42;;;3.00;99.90;;;;;;5063603;28;20029;-66
2023/03/07 12:37:46;;;;;;;4.80;1.10;;;2.90;99.90;;;;;;5065993;28;20182;-66
2023/03/07 12:40:31;;;;;;;4.60;1.20;;;2.80;99.90;;;;;;5070642;28;20032;-66
2023/03/07 12:43:28;;;;;;;6.97;1.17;;;2.80;99.90;;;;;;5067321;28;20414;-66
2023/03/07 12:46:16;;;;;;;5.72;1.08;;;2.80;99.90;;;;;;5068717;28;20037;-66
2023/03/07 12:48:59;;;;;;;5.13;1.35;;;2.80;99.90;;;;;;5066244;28;20059;-65
2023/03/07 12:51:36;;;;;;;5.40;1.48;;;2.90;99.90;;;;;;5065668;28;20482;-65
2023/03/07 12:54:31;;;;;;;8.30;1.23;;;3.00;99.90;;;;;;5051665;28;20060;-65
2023/03/07 12:57:02;;;;;;;5.53;1.48;;;3.10;99.90;;;;;;5053096;28;20063;-65
2023/03/07 12:59:30;;;;;;;3.95;1.33;;;3.10;99.90;;;;;;5066771;28;20040;-65
2023/03/07 13:02:05;;;;;;;5.40;1.48;;;3.20;99.90;;;;;;5068936;28;20494;-65
2023/03/07 13:04:39;;;;;;;10.27;1.58;;;3.20;99.90;;;;;;5067510;28;20046;-65
2023/03/07 13:07:24;;;;;;;6.80;1.33;;;3.30;99.90;;;;;;5069692;28;20113;-65
2023/03/07 13:09:53;;;;;;;7.38;1.55;;;3.30;99.90;;;;;;5071232;28;20040;-65
2023/03/07 13:12:28;;;;;;;5.63;1.10;;;3.40;99.90;;;;;;5064071;28;20059;-64